Sterling, Michigan
Current Conditions -  °F | °C
As of 8:55 PM on Monday 24 Nov 2014 (Local Time) from KIKW Reporting Station
Overcast Overcast  
Wind Chill: 22°   Ceiling: 1500
Heat Index: 34°   Visibility: 7mi
Dew Point: 31°   Wind: 23mph
Humidity: 89%   Direction: 220°SW
Pressure: 29.47"   Gusts: 30mph
Location:  44.03°N, 84.02°W
Report Text: KIKW 250155Z AUTO 22020G26KT 7SM BKN015 OVC022 01/00 A2947 RMK AO2 T00131003
Loading
Personal Weather Stations






























Interactive Weather Map New forecast layout! Learn more

10-Day Weather Forecast

Advertisements
Track Severe Weather on mobile